createdAt,value
2018-12-03T00:00:56.885Z,8.00
2018-12-03T00:01:56.868Z,8.00
2018-12-03T00:02:57.757Z,8.00
2018-12-03T00:03:56.855Z,8.00
2018-12-03T00:04:56.844Z,12.00
2018-12-03T00:05:56.830Z,8.00
2018-12-03T00:06:56.886Z,8.00
2018-12-03T00:07:56.813Z,8.00
2018-12-03T00:08:56.839Z,8.00
2018-12-03T00:09:56.788Z,8.00
2018-12-03T00:10:56.777Z,8.00
2018-12-03T00:11:56.768Z,8.00
2018-12-03T00:12:56.764Z,8.00
2018-12-03T00:13:56.753Z,8.00
2018-12-03T00:14:57.536Z,8.00
2018-12-03T00:15:56.735Z,8.00
2018-12-03T00:16:56.723Z,8.00
2018-12-03T00:18:06.808Z,8.00
2018-12-03T00:18:56.697Z,8.00
2018-12-03T00:19:56.689Z,8.00
2018-12-03T00:20:56.696Z,8.00
2018-12-03T00:21:56.666Z,8.00
2018-12-03T00:22:56.663Z,8.00
2018-12-03T00:23:56.646Z,8.00
2018-12-03T00:24:56.643Z,8.00
2018-12-03T00:25:56.628Z,8.00
2018-12-03T00:26:56.655Z,8.00
2018-12-03T00:27:56.610Z,8.00
2018-12-03T00:28:56.600Z,8.00
2018-12-03T00:29:56.582Z,8.00
2018-12-03T00:30:56.579Z,8.00
2018-12-03T00:31:56.564Z,8.00
2018-12-03T00:32:57.261Z,8.00
2018-12-03T00:33:56.549Z,8.00
2018-12-03T00:34:56.532Z,8.00
2018-12-03T00:35:56.521Z,8.00
2018-12-03T00:36:56.513Z,8.00
2018-12-03T00:37:56.500Z,8.00
2018-12-03T00:38:56.527Z,8.00
2018-12-03T00:39:56.488Z,8.00
2018-12-03T00:40:56.476Z,8.00
2018-12-03T00:41:56.458Z,8.00
2018-12-03T00:42:56.455Z,8.00
2018-12-03T00:43:56.442Z,8.00
2018-12-03T00:44:56.475Z,8.00
2018-12-03T00:45:56.418Z,8.00
2018-12-03T00:46:56.421Z,8.00
2018-12-03T00:47:56.401Z,8.00
2018-12-03T00:49:06.893Z,8.00
2018-12-03T00:49:56.380Z,8.00
2018-12-03T00:50:56.801Z,8.00
2018-12-03T00:51:56.365Z,8.00
2018-12-03T00:52:56.350Z,8.00
2018-12-03T00:53:56.349Z,8.00
2018-12-03T00:54:56.330Z,8.00
2018-12-03T00:55:56.324Z,8.00
2018-12-03T00:56:56.346Z,8.00
2018-12-03T00:57:56.298Z,8.00
2018-12-03T00:58:56.291Z,8.00
2018-12-03T00:59:56.281Z,8.00
2018-12-03T01:00:56.270Z,8.00
2018-12-03T01:01:56.266Z,8.00
2018-12-03T01:02:56.277Z,8.00
2018-12-03T01:03:56.236Z,8.00
2018-12-03T01:04:56.231Z,8.00
2018-12-03T01:05:56.220Z,8.00
2018-12-03T01:06:56.209Z,8.00
2018-12-03T01:07:56.200Z,8.00
2018-12-03T01:08:56.224Z,8.00
2018-12-03T01:09:56.180Z,8.00
2018-12-03T01:10:56.166Z,8.00
2018-12-03T01:11:56.160Z,8.00
2018-12-03T01:12:56.146Z,8.00
2018-12-03T01:13:56.140Z,8.00
2018-12-03T01:14:56.271Z,8.00
2018-12-03T01:15:56.117Z,8.00
2018-12-03T01:16:56.108Z,8.00
2018-12-03T01:17:56.095Z,8.00
2018-12-03T01:18:56.081Z,8.00
2018-12-03T01:20:06.306Z,8.00
2018-12-03T01:20:56.064Z,8.00
2018-12-03T01:21:56.052Z,8.00
2018-12-03T01:22:56.043Z,8.00
2018-12-03T01:23:56.034Z,8.00
2018-12-03T01:24:56.029Z,8.00
2018-12-03T01:25:56.284Z,8.00
2018-12-03T01:26:56.019Z,8.00
2018-12-03T01:27:55.998Z,8.00
2018-12-03T01:28:55.986Z,8.00
2018-12-03T01:29:55.974Z,8.00
2018-12-03T01:30:55.960Z,8.00
2018-12-03T01:31:56.745Z,8.00
2018-12-03T01:32:55.945Z,8.00
2018-12-03T01:33:55.934Z,8.00
2018-12-03T01:34:55.922Z,8.00
2018-12-03T01:35:55.918Z,8.00
2018-12-03T01:36:55.902Z,8.00
2018-12-03T01:37:55.934Z,8.00
2018-12-03T01:38:55.881Z,8.00
2018-12-03T01:39:55.867Z,8.00
2018-12-03T01:40:55.857Z,8.00
2018-12-03T01:41:55.854Z,8.00
2018-12-03T01:42:55.842Z,8.00
2018-12-03T01:43:55.865Z,8.00
2018-12-03T01:44:55.816Z,8.00
2018-12-03T01:45:55.807Z,8.00
2018-12-03T01:46:55.802Z,8.00
2018-12-03T01:47:55.794Z,8.00
2018-12-03T01:48:55.783Z,8.00
2018-12-03T01:49:55.785Z,8.00
2018-12-03T01:51:08.104Z,8.00
2018-12-03T01:51:55.746Z,8.00
2018-12-03T01:52:55.737Z,8.00
2018-12-03T01:53:55.732Z,8.00
2018-12-03T01:54:55.713Z,8.00
2018-12-03T01:55:55.888Z,8.00
2018-12-03T01:56:55.698Z,8.00
2018-12-03T01:57:55.686Z,8.00
2018-12-03T01:58:55.675Z,8.00
2018-12-03T01:59:55.664Z,8.00
2018-12-03T02:00:55.660Z,8.00
2018-12-03T02:01:55.667Z,8.00
2018-12-03T02:02:55.632Z,8.00
2018-12-03T02:03:55.626Z,8.00
2018-12-03T02:04:55.614Z,8.00
2018-12-03T02:05:55.605Z,8.00
2018-12-03T02:06:55.601Z,8.00
2018-12-03T02:07:55.634Z,8.00
2018-12-03T02:08:55.573Z,8.00
2018-12-03T02:09:55.569Z,8.00
2018-12-03T02:10:55.581Z,8.00
2018-12-03T02:11:55.538Z,8.00
2018-12-03T02:12:55.531Z,8.00
2018-12-03T02:13:55.541Z,8.00
2018-12-03T02:14:55.515Z,8.00
2018-12-03T02:15:55.500Z,8.00
2018-12-03T02:16:55.485Z,8.00
2018-12-03T02:17:55.476Z,8.00
2018-12-03T02:18:55.483Z,8.00
2018-12-03T02:19:55.475Z,8.00
2018-12-03T02:20:55.446Z,8.00
2018-12-03T02:22:05.602Z,8.00
2018-12-03T02:22:55.430Z,8.00
2018-12-03T02:23:55.415Z,8.00
2018-12-03T02:24:55.407Z,8.00
2018-12-03T02:25:56.329Z,8.00
2018-12-03T02:26:55.387Z,8.00
2018-12-03T02:27:55.373Z,8.00
2018-12-03T02:28:55.376Z,8.00
2018-12-03T02:29:55.358Z,8.00
2018-12-03T02:30:55.343Z,8.00
2018-12-03T02:31:56.583Z,8.00
2018-12-03T02:32:55.327Z,8.00
2018-12-03T02:33:55.326Z,8.00
2018-12-03T02:34:55.311Z,8.00
2018-12-03T02:35:55.297Z,8.00
2018-12-03T02:36:55.281Z,8.00
2018-12-03T02:37:55.306Z,8.00
2018-12-03T02:38:55.267Z,8.00
2018-12-03T02:39:55.258Z,8.00
2018-12-03T02:40:55.245Z,8.00
2018-12-03T02:41:55.230Z,8.00
2018-12-03T02:42:55.228Z,8.00
2018-12-03T02:43:55.302Z,8.00
2018-12-03T02:44:55.207Z,8.00
2018-12-03T02:45:55.218Z,8.00
2018-12-03T02:46:55.180Z,8.00
2018-12-03T02:47:55.171Z,8.00
2018-12-03T02:48:55.164Z,8.00
2018-12-03T02:49:55.317Z,8.00
2018-12-03T02:50:55.138Z,8.00
2018-12-03T02:51:55.130Z,8.00
2018-12-03T02:53:05.525Z,8.00
2018-12-03T02:53:55.112Z,8.00
2018-12-03T02:54:55.104Z,8.00
2018-12-03T02:55:55.109Z,8.00
2018-12-03T02:56:55.083Z,8.00
2018-12-03T02:57:55.076Z,8.00
2018-12-03T02:58:55.060Z,8.00
2018-12-03T02:59:55.050Z,8.00
2018-12-03T03:00:55.040Z,8.00
2018-12-03T03:01:55.367Z,8.00
2018-12-03T03:02:55.025Z,8.00
2018-12-03T03:03:55.015Z,8.00
2018-12-03T03:04:55.000Z,8.00
2018-12-03T03:05:54.998Z,8.00
2018-12-03T03:06:54.973Z,8.00
2018-12-03T03:07:54.981Z,8.00
2018-12-03T03:08:54.952Z,8.00
2018-12-03T03:09:54.954Z,8.00
2018-12-03T03:10:54.934Z,8.00
2018-12-03T03:11:54.928Z,8.00
2018-12-03T03:12:54.914Z,8.00
2018-12-03T03:13:54.936Z,8.00
2018-12-03T03:14:54.890Z,8.00
2018-12-03T03:15:54.894Z,8.00
2018-12-03T03:16:54.885Z,8.00
2018-12-03T03:17:54.865Z,8.00
2018-12-03T03:18:54.875Z,8.00
2018-12-03T03:19:54.883Z,8.00
2018-12-03T03:20:54.840Z,8.00
2018-12-03T03:21:54.825Z,8.00
2018-12-03T03:22:54.813Z,8.00
2018-12-03T03:24:05.108Z,8.00
2018-12-03T03:24:54.848Z,8.00
2018-12-03T03:25:54.821Z,8.00
2018-12-03T03:26:54.781Z,8.00
2018-12-03T03:27:54.762Z,8.00
2018-12-03T03:28:54.754Z,8.00
2018-12-03T03:29:54.743Z,8.00
2018-12-03T03:30:54.736Z,8.00
2018-12-03T03:31:54.759Z,8.00
2018-12-03T03:32:54.724Z,8.00
2018-12-03T03:33:54.703Z,8.00
2018-12-03T03:34:54.691Z,8.00
2018-12-03T03:35:54.682Z,8.00
2018-12-03T03:36:54.670Z,8.00
2018-12-03T03:37:54.697Z,8.00
2018-12-03T03:38:54.661Z,8.00
2018-12-03T03:39:54.647Z,8.00
2018-12-03T03:40:54.628Z,8.00
2018-12-03T03:41:54.628Z,8.00
2018-12-03T03:42:54.608Z,8.00
2018-12-03T03:43:54.641Z,8.00
2018-12-03T03:44:54.591Z,8.00
2018-12-03T03:45:54.586Z,8.00
2018-12-03T03:46:54.577Z,8.00
2018-12-03T03:47:54.562Z,8.00
2018-12-03T03:48:54.548Z,8.00
2018-12-03T03:49:56.080Z,8.00
2018-12-03T03:50:54.537Z,8.00
2018-12-03T03:51:54.517Z,8.00
2018-12-03T03:52:54.507Z,8.00
2018-12-03T03:53:54.498Z,8.00
2018-12-03T03:55:06.365Z,8.00
2018-12-03T03:55:54.478Z,8.00
2018-12-03T03:56:54.463Z,8.00
2018-12-03T03:57:54.456Z,8.00
2018-12-03T03:58:54.451Z,8.00
2018-12-03T03:59:54.440Z,8.00
2018-12-03T04:00:54.869Z,8.00
2018-12-03T04:01:54.412Z,8.00
2018-12-03T04:02:54.409Z,8.00
2018-12-03T04:04:01.374Z,8.00
2018-12-03T04:04:54.389Z,8.00
2018-12-03T04:05:54.373Z,8.00
2018-12-03T04:06:54.902Z,8.00
2018-12-03T04:07:54.357Z,8.00
2018-12-03T04:09:01.331Z,8.00
2018-12-03T04:09:54.333Z,8.00
2018-12-03T04:10:54.363Z,8.00
2018-12-03T04:11:54.317Z,8.00
2018-12-03T04:12:55.087Z,8.00
2018-12-03T04:13:54.295Z,8.00
2018-12-03T04:14:54.285Z,8.00
2018-12-03T04:15:54.273Z,8.00
2018-12-03T04:16:54.260Z,8.00
2018-12-03T04:17:54.253Z,8.00
2018-12-03T04:18:54.274Z,12.00
2018-12-03T04:19:54.233Z,8.00
2018-12-03T04:20:54.217Z,8.00
2018-12-03T04:21:54.207Z,8.00
2018-12-03T04:22:54.202Z,8.00
2018-12-03T04:23:54.197Z,8.00
2018-12-03T04:24:54.199Z,8.00
2018-12-03T04:25:54.176Z,8.00
2018-12-03T04:26:54.186Z,8.00
2018-12-03T04:27:54.152Z,8.00
2018-12-03T04:28:54.140Z,8.00
2018-12-03T04:29:54.127Z,8.00
2018-12-03T04:30:54.447Z,8.00
2018-12-03T04:31:54.120Z,8.00
2018-12-03T04:32:54.097Z,8.00
2018-12-03T04:33:54.100Z,8.00
2018-12-03T04:34:54.072Z,8.00
2018-12-03T04:35:54.089Z,8.00
2018-12-03T04:36:54.088Z,12.00
2018-12-03T04:37:54.090Z,8.00
2018-12-03T04:38:54.037Z,8.00
2018-12-03T04:40:04.810Z,8.00
2018-12-03T04:40:54.012Z,12.00
2018-12-03T04:41:54.003Z,8.00
2018-12-03T04:42:54.036Z,12.00
2018-12-03T04:43:53.982Z,12.00
2018-12-03T04:44:53.997Z,12.00
2018-12-03T04:45:53.970Z,12.00
2018-12-03T04:46:53.994Z,8.00
2018-12-03T04:47:53.945Z,8.00
2018-12-03T04:48:54.448Z,8.00
2018-12-03T04:49:53.924Z,8.00
2018-12-03T04:50:53.908Z,8.00
2018-12-03T04:51:53.901Z,8.00
2018-12-03T04:52:53.889Z,8.00
2018-12-03T04:53:53.939Z,8.00
2018-12-03T04:54:53.890Z,8.00
2018-12-03T04:55:53.894Z,8.00
2018-12-03T04:56:53.850Z,8.00
2018-12-03T04:57:53.836Z,8.00
2018-12-03T04:58:53.832Z,12.00
2018-12-03T04:59:53.819Z,8.00
2018-12-03T05:00:53.848Z,8.00
2018-12-03T05:01:53.803Z,8.00
2018-12-03T05:02:53.787Z,8.00
2018-12-03T05:03:53.777Z,8.00
2018-12-03T05:04:53.771Z,8.00
2018-12-03T05:05:53.760Z,8.00
2018-12-03T05:06:53.762Z,8.00
2018-12-03T05:07:53.737Z,8.00
2018-12-03T05:08:53.724Z,8.00
2018-12-03T05:09:53.715Z,8.00
2018-12-03T05:11:06.094Z,8.00
2018-12-03T05:11:53.699Z,8.00
2018-12-03T05:12:54.476Z,12.00
2018-12-03T05:13:53.683Z,12.00
2018-12-03T05:14:53.666Z,12.00
2018-12-03T05:15:53.659Z,12.00
2018-12-03T05:16:53.649Z,12.00
2018-12-03T05:17:53.641Z,12.00
2018-12-03T05:18:53.659Z,12.00
2018-12-03T05:19:53.622Z,12.00
2018-12-03T05:20:53.604Z,8.00
2018-12-03T05:21:53.601Z,12.00
2018-12-03T05:22:53.587Z,12.00
2018-12-03T05:23:53.576Z,12.00
2018-12-03T05:24:53.614Z,12.00
2018-12-03T05:25:53.560Z,8.00
2018-12-03T05:26:53.539Z,8.00
2018-12-03T05:27:53.532Z,12.00
2018-12-03T05:28:53.520Z,12.00
2018-12-03T05:29:53.511Z,12.00
2018-12-03T05:30:53.542Z,12.00
2018-12-03T05:31:53.495Z,12.00
2018-12-03T05:32:53.486Z,12.00
2018-12-03T05:33:53.470Z,12.00
2018-12-03T05:34:53.457Z,12.00
2018-12-03T05:35:53.447Z,12.00
2018-12-03T05:36:53.486Z,12.00
2018-12-03T05:37:53.427Z,12.00
2018-12-03T05:38:53.416Z,12.00
2018-12-03T05:39:53.415Z,12.00
2018-12-03T05:40:53.400Z,12.00
2018-12-03T05:42:05.947Z,12.00
2018-12-03T05:42:53.379Z,12.00
2018-12-03T05:43:53.363Z,12.00
2018-12-03T05:44:53.357Z,12.00
2018-12-03T05:45:53.350Z,12.00
2018-12-03T05:46:53.334Z,12.00
2018-12-03T05:47:53.468Z,12.00
2018-12-03T05:48:53.319Z,12.00
2018-12-03T05:49:53.302Z,12.00
2018-12-03T05:50:53.293Z,12.00
2018-12-03T05:51:53.289Z,12.00
2018-12-03T05:52:53.272Z,12.00
2018-12-03T05:53:53.291Z,12.00
2018-12-03T05:54:53.259Z,12.00
2018-12-03T05:55:53.253Z,12.00
2018-12-03T05:56:53.240Z,12.00
2018-12-03T05:57:53.225Z,12.00
2018-12-03T05:58:53.213Z,12.00
2018-12-03T05:59:53.250Z,12.00
2018-12-03T06:00:53.200Z,12.00
2018-12-03T06:01:53.249Z,12.00
2018-12-03T06:02:53.177Z,12.00
2018-12-03T06:03:53.166Z,12.00
2018-12-03T06:04:53.150Z,12.00
2018-12-03T06:05:53.178Z,16.00
2018-12-03T06:06:53.143Z,12.00
2018-12-03T06:07:53.126Z,12.00
2018-12-03T06:08:53.112Z,16.00
2018-12-03T06:09:53.105Z,12.00
2018-12-03T06:10:53.093Z,16.00
2018-12-03T06:11:53.121Z,16.00
2018-12-03T06:13:03.489Z,16.00
2018-12-03T06:13:53.065Z,16.00
2018-12-03T06:14:53.048Z,20.00
2018-12-03T06:15:53.070Z,16.00
2018-12-03T06:16:53.041Z,16.00
2018-12-03T06:17:53.060Z,20.00
2018-12-03T06:18:53.008Z,20.00
2018-12-03T06:19:53.005Z,24.00
2018-12-03T06:20:52.992Z,24.00
2018-12-03T06:21:52.977Z,24.00
2018-12-03T06:22:52.966Z,24.00
2018-12-03T06:23:53.002Z,28.00
2018-12-03T06:24:52.981Z,28.00
2018-12-03T06:25:52.937Z,28.00
2018-12-03T06:26:52.932Z,32.00
2018-12-03T06:27:52.926Z,32.00
2018-12-03T06:28:52.911Z,32.00
2018-12-03T06:29:52.917Z,40.00
2018-12-03T06:30:52.891Z,40.00
2018-12-03T06:31:52.897Z,48.00
2018-12-03T06:32:52.866Z,48.00
2018-12-03T06:33:52.859Z,52.00
2018-12-03T06:34:52.854Z,52.00
2018-12-03T06:35:53.783Z,56.00
2018-12-03T06:36:52.828Z,60.00
2018-12-03T06:37:52.824Z,64.00
2018-12-03T06:38:52.810Z,68.00
2018-12-03T06:39:52.795Z,72.00
2018-12-03T06:40:52.781Z,76.00
2018-12-03T06:41:52.973Z,84.00
2018-12-03T06:42:52.885Z,88.00
2018-12-03T06:44:03.122Z,92.00
2018-12-03T06:44:52.747Z,96.00
2018-12-03T06:45:52.732Z,104.00
2018-12-03T06:46:52.724Z,112.00
2018-12-03T06:47:52.753Z,116.00
2018-12-03T06:48:52.727Z,120.00
2018-12-03T06:49:52.694Z,128.00
2018-12-03T06:50:52.678Z,136.00
2018-12-03T06:51:52.682Z,140.00
2018-12-03T06:52:52.666Z,148.00
2018-12-03T06:53:52.670Z,160.00
2018-12-03T06:54:52.636Z,168.00
2018-12-03T06:55:52.629Z,176.00
2018-12-03T06:56:52.635Z,184.00
2018-12-03T06:57:52.607Z,196.00
2018-12-03T06:58:52.596Z,204.00
2018-12-03T06:59:52.601Z,212.00
2018-12-03T07:00:52.574Z,228.00
2018-12-03T07:01:52.571Z,236.00
2018-12-03T07:02:52.565Z,248.00
2018-12-03T07:03:52.548Z,252.00
2018-12-03T07:04:52.540Z,256.00
2018-12-03T07:05:53.317Z,272.00
2018-12-03T07:06:52.523Z,292.00
2018-12-03T07:07:52.502Z,308.00
2018-12-03T07:08:52.505Z,316.00
2018-12-03T07:09:52.489Z,316.00
2018-12-03T07:10:52.477Z,328.00
2018-12-03T07:11:52.987Z,344.00
2018-12-03T07:12:52.455Z,360.00
2018-12-03T07:13:52.446Z,376.00
2018-12-03T07:15:02.869Z,396.00
2018-12-03T07:15:52.423Z,408.00
2018-12-03T07:16:52.420Z,408.00
2018-12-03T07:17:52.442Z,416.00
2018-12-03T07:18:52.394Z,428.00
2018-12-03T07:19:52.400Z,440.00
2018-12-03T07:20:52.374Z,460.00
2018-12-03T07:21:52.360Z,472.00
2018-12-03T07:22:52.364Z,476.00
2018-12-03T07:23:52.362Z,492.00
2018-12-03T07:24:52.329Z,492.00
2018-12-03T07:25:52.328Z,492.00
2018-12-03T07:26:52.308Z,496.00
2018-12-03T07:27:52.352Z,520.00
2018-12-03T07:28:52.293Z,544.00
2018-12-03T07:29:53.182Z,556.00
2018-12-03T07:30:52.287Z,540.00
2018-12-03T07:31:52.261Z,532.00
2018-12-03T07:32:52.256Z,520.00
2018-12-03T07:33:52.233Z,508.00
2018-12-03T07:34:52.505Z,508.00
2018-12-03T07:35:52.236Z,520.00
2018-12-03T07:36:52.205Z,540.00
2018-12-03T07:37:52.203Z,528.00
2018-12-03T07:38:52.197Z,508.00
2018-12-03T07:39:52.177Z,520.00
2018-12-03T07:40:52.205Z,548.00
2018-12-03T07:41:52.517Z,588.00
2018-12-03T07:42:52.151Z,620.00
2018-12-03T07:43:52.153Z,624.00
2018-12-03T07:44:52.125Z,636.00
2018-12-03T07:46:02.570Z,640.00
2018-12-03T07:46:52.101Z,652.00
2018-12-03T07:47:52.133Z,668.00
2018-12-03T07:48:52.128Z,696.00
2018-12-03T07:49:52.068Z,744.00
2018-12-03T07:50:52.060Z,780.00
2018-12-03T07:51:52.048Z,792.00
2018-12-03T07:52:52.050Z,804.00
2018-12-03T07:53:52.056Z,828.00
2018-12-03T07:54:52.020Z,840.00
2018-12-03T07:55:52.004Z,844.00
2018-12-03T07:56:51.999Z,828.00
2018-12-03T07:57:51.989Z,824.00
2018-12-03T07:58:51.983Z,808.00
2018-12-03T07:59:52.004Z,800.00
2018-12-03T08:00:51.957Z,772.00
2018-12-03T08:01:51.964Z,748.00
2018-12-03T08:02:51.936Z,728.00
2018-12-03T08:03:51.927Z,720.00
2018-12-03T08:04:51.919Z,736.00
2018-12-03T08:05:51.942Z,752.00
2018-12-03T08:06:51.907Z,764.00
2018-12-03T08:07:51.888Z,776.00
2018-12-03T08:08:51.874Z,804.00
2018-12-03T08:09:51.864Z,872.00
2018-12-03T08:10:51.847Z,968.00
2018-12-03T08:11:52.011Z,1048.00
2018-12-03T08:12:51.830Z,1056.00
2018-12-03T08:13:51.845Z,1072.00
2018-12-03T08:14:51.813Z,1056.00
2018-12-03T08:15:51.805Z,1048.00
2018-12-03T08:17:04.548Z,1048.00
2018-12-03T08:17:51.779Z,1052.00
2018-12-03T08:18:51.770Z,1084.00
2018-12-03T08:19:51.764Z,1100.00
2018-12-03T08:20:51.745Z,1128.00
2018-12-03T08:21:51.743Z,1184.00
2018-12-03T08:22:51.767Z,1264.00
2018-12-03T08:23:51.725Z,1332.00
2018-12-03T08:24:51.713Z,1352.00
2018-12-03T08:25:51.695Z,1432.00
2018-12-03T08:26:51.686Z,1536.00
2018-12-03T08:27:51.673Z,1632.00
2018-12-03T08:28:51.703Z,1720.00
2018-12-03T08:29:51.658Z,1816.00
2018-12-03T08:30:51.696Z,1976.00
2018-12-03T08:31:51.640Z,2184.00
2018-12-03T08:32:51.620Z,2456.00
2018-12-03T08:33:51.613Z,2892.00
2018-12-03T08:34:51.633Z,3188.00
2018-12-03T08:35:51.591Z,3228.00
2018-12-03T08:36:51.595Z,3468.00
2018-12-03T08:37:51.575Z,3596.00
2018-12-03T08:38:51.561Z,3404.00
2018-12-03T08:39:51.548Z,3220.00
2018-12-03T08:40:52.033Z,3144.00
2018-12-03T08:41:51.558Z,3256.00
2018-12-03T08:42:51.526Z,3540.00
2018-12-03T08:43:51.505Z,3652.00
2018-12-03T08:44:51.503Z,4440.00
2018-12-03T08:45:51.493Z,4704.00
2018-12-03T08:46:52.008Z,4304.00
2018-12-03T08:48:03.130Z,3864.00
2018-12-03T08:48:51.458Z,4232.00
2018-12-03T08:49:51.446Z,4168.00
2018-12-03T08:50:51.437Z,4036.00
2018-12-03T08:51:51.421Z,4224.00
2018-12-03T08:52:51.457Z,4484.00
2018-12-03T08:53:51.406Z,4468.00
2018-12-03T08:54:51.401Z,4620.00
2018-12-03T08:55:51.382Z,4948.00
2018-12-03T08:56:51.372Z,4968.00
2018-12-03T08:57:51.367Z,5164.00
2018-12-03T08:58:51.388Z,5428.00
2018-12-03T08:59:51.343Z,5364.00
2018-12-03T09:00:51.332Z,5128.00
2018-12-03T09:01:51.323Z,5180.00
2018-12-03T09:02:51.315Z,5156.00
2018-12-03T09:03:51.300Z,5292.00
2018-12-03T09:04:51.334Z,5148.00
2018-12-03T09:05:51.293Z,4792.00
2018-12-03T09:06:51.266Z,4712.00
2018-12-03T09:07:51.270Z,4768.00
2018-12-03T09:08:51.256Z,4948.00
2018-12-03T09:09:51.240Z,5024.00
2018-12-03T09:10:51.241Z,5032.00
2018-12-03T09:11:51.218Z,4984.00
2018-12-03T09:12:51.209Z,4892.00
2018-12-03T09:13:51.200Z,5020.00
2018-12-03T09:14:51.187Z,5320.00
2018-12-03T09:15:51.182Z,5000.00
2018-12-03T09:16:51.219Z,4244.00
2018-12-03T09:17:51.155Z,4612.00
2018-12-03T09:19:01.412Z,5396.00
2018-12-03T09:19:51.148Z,4904.00
2018-12-03T09:20:51.128Z,4696.00
2018-12-03T09:21:51.109Z,4604.00
2018-12-03T09:22:51.557Z,4608.00
2018-12-03T09:23:51.093Z,4532.00
2018-12-03T09:24:51.087Z,4704.00
2018-12-03T09:25:51.153Z,4448.00
2018-12-03T09:26:51.059Z,4380.00
2018-12-03T09:27:51.055Z,4356.00
2018-12-03T09:28:52.094Z,4348.00
2018-12-03T09:29:51.035Z,4220.00
2018-12-03T09:30:51.029Z,4076.00
2018-12-03T09:31:51.027Z,4096.00
2018-12-03T09:32:50.999Z,3920.00
2018-12-03T09:33:50.989Z,3720.00
2018-12-03T09:34:51.033Z,3688.00
2018-12-03T09:35:50.970Z,3480.00
2018-12-03T09:36:50.962Z,3156.00
2018-12-03T09:37:50.957Z,3204.00
2018-12-03T09:38:50.941Z,3116.00
2018-12-03T09:39:50.934Z,3260.00
2018-12-03T09:40:50.956Z,3392.00
2018-12-03T09:41:50.907Z,2932.00
2018-12-03T09:42:50.891Z,2728.00
2018-12-03T09:43:50.909Z,2576.00
2018-12-03T09:44:50.876Z,2516.00
2018-12-03T09:45:50.876Z,2832.00
2018-12-03T09:46:50.908Z,3028.00
2018-12-03T09:47:54.226Z,3012.00
2018-12-03T09:48:50.854Z,2960.00
2018-12-03T09:50:02.023Z,2588.00
2018-12-03T09:50:50.813Z,2756.00
2018-12-03T09:51:50.800Z,2664.00
2018-12-03T09:52:51.085Z,2548.00
2018-12-03T09:53:50.781Z,2432.00
2018-12-03T09:54:50.775Z,2244.00
2018-12-03T09:55:50.755Z,2432.00
2018-12-03T09:56:50.745Z,2672.00
2018-12-03T09:57:50.765Z,2612.00
2018-12-03T09:58:50.768Z,2572.00
2018-12-03T09:59:50.765Z,2592.00
2018-12-03T10:00:50.809Z,2536.00
2018-12-03T10:01:50.702Z,2448.00
2018-12-03T10:02:50.704Z,2496.00
2018-12-03T10:03:50.677Z,2456.00
2018-12-03T10:04:51.087Z,2468.00
2018-12-03T10:05:50.664Z,2396.00
2018-12-03T10:06:50.648Z,2260.00
2018-12-03T10:07:50.635Z,2180.00
2018-12-03T10:08:50.628Z,2088.00
2018-12-03T10:09:50.615Z,2260.00
2018-12-03T10:10:51.676Z,2404.00
2018-12-03T10:11:50.726Z,2392.00
2018-12-03T10:12:50.580Z,2268.00
2018-12-03T10:13:50.575Z,2024.00
2018-12-03T10:14:50.611Z,1984.00
2018-12-03T10:15:50.554Z,2188.00
2018-12-03T10:16:50.662Z,2440.00
2018-12-03T10:17:51.489Z,2432.00
2018-12-03T10:18:50.589Z,2344.00
2018-12-03T10:19:50.505Z,2360.00
2018-12-03T10:21:01.520Z,2356.00
2018-12-03T10:21:50.535Z,2376.00
2018-12-03T10:22:50.514Z,2188.00
2018-12-03T10:23:50.468Z,2132.00
2018-12-03T10:24:50.459Z,2152.00
2018-12-03T10:25:50.446Z,2196.00
2018-12-03T10:26:50.441Z,2224.00
2018-12-03T10:27:50.425Z,2404.00
2018-12-03T10:28:50.604Z,2392.00
2018-12-03T10:29:50.413Z,2328.00
2018-12-03T10:30:50.392Z,2392.00
2018-12-03T10:31:50.385Z,2452.00
2018-12-03T10:32:50.377Z,2560.00
2018-12-03T10:33:50.357Z,2580.00
2018-12-03T10:34:50.390Z,2564.00
2018-12-03T10:35:50.337Z,2596.00
2018-12-03T10:36:50.337Z,2808.00
2018-12-03T10:37:50.397Z,3028.00
2018-12-03T10:38:50.311Z,3100.00
2018-12-03T10:39:50.300Z,3140.00
2018-12-03T10:40:50.336Z,2988.00
2018-12-03T10:41:50.400Z,2852.00
2018-12-03T10:42:50.265Z,2756.00
2018-12-03T10:43:50.256Z,2692.00
2018-12-03T10:44:50.250Z,2700.00
2018-12-03T10:45:50.237Z,2740.00
2018-12-03T10:46:50.584Z,2716.00
2018-12-03T10:47:50.228Z,2668.00
2018-12-03T10:48:50.209Z,2732.00
2018-12-03T10:49:50.200Z,2916.00
2018-12-03T10:50:50.181Z,2832.00
2018-12-03T10:52:01.129Z,2708.00
2018-12-03T10:52:50.178Z,2604.00
2018-12-03T10:53:50.186Z,2628.00
2018-12-03T10:54:50.145Z,2540.00
2018-12-03T10:55:50.136Z,2356.00
2018-12-03T10:56:50.189Z,2228.00
2018-12-03T10:57:50.215Z,2124.00
2018-12-03T10:58:50.114Z,2060.00
2018-12-03T10:59:50.090Z,2104.00
2018-12-03T11:00:50.085Z,2160.00
2018-12-03T11:01:50.097Z,2152.00
2018-12-03T11:02:50.071Z,2204.00
2018-12-03T11:03:50.078Z,2220.00
2018-12-03T11:04:50.043Z,2204.00
2018-12-03T11:05:50.030Z,2208.00
2018-12-03T11:06:50.023Z,2232.00
2018-12-03T11:07:50.021Z,2320.00
2018-12-03T11:08:50.007Z,2272.00
2018-12-03T11:09:50.624Z,2252.00
2018-12-03T11:10:49.981Z,2236.00
2018-12-03T11:11:49.994Z,2220.00
2018-12-03T11:12:49.959Z,2168.00
2018-12-03T11:13:49.951Z,2156.00
2018-12-03T11:14:49.930Z,2128.00
2018-12-03T11:15:50.077Z,2068.00
2018-12-03T11:16:49.929Z,1948.00
2018-12-03T11:17:49.901Z,1916.00
2018-12-03T11:18:49.896Z,1828.00
2018-12-03T11:19:49.937Z,1792.00
2018-12-03T11:20:49.870Z,1816.00
2018-12-03T11:21:50.610Z,1768.00
2018-12-03T11:23:02.111Z,1744.00
2018-12-03T11:23:49.847Z,1736.00
2018-12-03T11:24:49.829Z,1584.00
2018-12-03T11:25:49.823Z,1472.00
2018-12-03T11:26:49.807Z,1344.00
2018-12-03T11:27:50.148Z,1256.00
2018-12-03T11:28:49.786Z,1180.00
2018-12-03T11:29:49.780Z,1128.00
2018-12-03T11:30:49.782Z,1104.00
2018-12-03T11:31:49.756Z,1076.00
2018-12-03T11:32:49.743Z,1016.00
2018-12-03T11:33:49.769Z,972.00
2018-12-03T11:34:49.729Z,952.00
2018-12-03T11:35:49.723Z,928.00
2018-12-03T11:36:49.705Z,908.00
2018-12-03T11:37:49.700Z,912.00
2018-12-03T11:38:49.685Z,892.00
2018-12-03T11:39:49.708Z,856.00
2018-12-03T11:40:49.665Z,816.00
2018-12-03T11:41:49.659Z,788.00
2018-12-03T11:42:49.643Z,748.00
2018-12-03T11:43:49.632Z,712.00
2018-12-03T11:44:49.619Z,688.00
2018-12-03T11:45:49.653Z,692.00
2018-12-03T11:46:49.606Z,668.00
2018-12-03T11:47:49.598Z,644.00
2018-12-03T11:48:49.581Z,620.00
2018-12-03T11:49:49.573Z,612.00
2018-12-03T11:50:49.563Z,600.00
2018-12-03T11:51:49.588Z,596.00
2018-12-03T11:52:49.543Z,588.00
2018-12-03T11:54:00.091Z,576.00
2018-12-03T11:54:49.516Z,576.00
2018-12-03T11:55:49.513Z,588.00
2018-12-03T11:56:49.502Z,572.00
2018-12-03T11:57:49.531Z,564.00
2018-12-03T11:58:49.490Z,548.00
2018-12-03T11:59:49.466Z,532.00
2018-12-03T12:00:49.457Z,516.00
2018-12-03T12:01:49.456Z,516.00
2018-12-03T12:02:49.446Z,532.00
2018-12-03T12:03:49.650Z,556.00
2018-12-03T12:04:49.417Z,576.00
2018-12-03T12:05:49.405Z,556.00
2018-12-03T12:06:49.398Z,572.00
2018-12-03T12:07:49.387Z,572.00
2018-12-03T12:08:49.378Z,560.00
2018-12-03T12:09:49.389Z,552.00
2018-12-03T12:10:49.358Z,520.00
2018-12-03T12:11:49.349Z,504.00
2018-12-03T12:12:49.416Z,516.00
2018-12-03T12:13:49.327Z,512.00
2018-12-03T12:14:49.321Z,496.00
2018-12-03T12:15:49.342Z,480.00
2018-12-03T12:16:49.293Z,472.00
2018-12-03T12:17:49.284Z,472.00
2018-12-03T12:18:49.277Z,476.00
2018-12-03T12:19:49.265Z,444.00
2018-12-03T12:20:49.255Z,432.00
2018-12-03T12:21:49.275Z,412.00
2018-12-03T12:22:49.234Z,396.00
2018-12-03T12:23:49.221Z,392.00
2018-12-03T12:24:59.849Z,388.00
2018-12-03T12:25:49.204Z,376.00
2018-12-03T12:26:49.192Z,384.00
2018-12-03T12:27:49.662Z,380.00
2018-12-03T12:28:49.171Z,368.00
2018-12-03T12:29:49.166Z,368.00
2018-12-03T12:30:49.162Z,352.00
2018-12-03T12:31:49.141Z,344.00
2018-12-03T12:32:49.128Z,348.00
2018-12-03T12:33:49.141Z,356.00
2018-12-03T12:34:49.113Z,356.00
2018-12-03T12:35:49.101Z,348.00
2018-12-03T12:36:49.089Z,344.00
2018-12-03T12:37:49.082Z,340.00
2018-12-03T12:38:49.078Z,344.00
2018-12-03T12:39:49.099Z,344.00
2018-12-03T12:40:49.048Z,328.00
2018-12-03T12:41:49.035Z,308.00
2018-12-03T12:42:49.031Z,284.00
2018-12-03T12:43:49.023Z,260.00
2018-12-03T12:44:49.011Z,248.00